Time;durP1;ratioP1;P1;durP2;ratioP2;P2;SDS_P1;SDS_P2;PMS_P1;PMS_P2;Temp;Humidity;BMP_temperature;BMP_pressure;BME280_temperature;BME280_humidity;BME280_pressure;Samples;Min_cycle;Max_cycle;Signal;HPM_P1;HPM_P2
2022/02/08 00:00:18;;;;;;;26.52;4.60;;;6.60;99.90;;;;;;5092015;28;20499;-48
2022/02/08 00:02:48;;;;;;;15.43;4.22;;;6.60;99.90;;;;;;5082685;28;20047;-48
2022/02/08 00:05:16;;;;;;;23.42;4.82;;;6.60;99.90;;;;;;5084298;28;20040;-47
2022/02/08 00:07:46;;;;;;;25.98;5.30;;;6.60;99.90;;;;;;5091457;28;20044;-51
2022/02/08 00:10:11;;;;;;;18.42;4.40;;;6.60;99.90;;;;;;5091837;28;20047;-52
2022/02/08 00:12:37;;;;;;;25.30;5.57;;;6.70;99.90;;;;;;5090969;28;20040;-47
2022/02/08 00:15:03;;;;;;;20.75;4.78;;;6.70;99.90;;;;;;5076485;28;20504;-47
2022/02/08 00:17:28;;;;;;;21.85;4.68;;;6.70;99.90;;;;;;5071161;28;20036;-47
2022/02/08 00:19:54;;;;;;;19.50;4.53;;;6.70;99.90;;;;;;5071193;28;20094;-51
2022/02/08 00:22:20;;;;;;;26.00;4.70;;;6.70;99.90;;;;;;5087085;28;20032;-48
2022/02/08 00:24:46;;;;;;;22.30;4.95;;;6.70;99.90;;;;;;5091028;28;20040;-48
2022/02/08 00:27:11;;;;;;;22.48;5.10;;;6.70;99.90;;;;;;5061384;28;20365;-47
2022/02/08 00:29:37;;;;;;;30.95;5.35;;;6.80;99.90;;;;;;5086983;28;20043;-48
2022/02/08 00:32:06;;;;;;;20.60;5.45;;;6.70;99.90;;;;;;5076348;28;20044;-47
2022/02/08 00:34:31;;;;;;;34.28;5.38;;;6.70;99.90;;;;;;5072965;28;20440;-47
2022/02/08 00:36:57;;;;;;;22.75;5.20;;;6.70;99.90;;;;;;5091386;28;20047;-50
2022/02/08 00:39:23;;;;;;;26.67;6.72;;;6.80;99.90;;;;;;5091296;28;20408;-49
2022/02/08 00:41:50;;;;;;;24.80;5.55;;;6.80;99.90;;;;;;5090088;28;20044;-49
2022/02/08 00:44:21;;;;;;;28.42;6.15;;;6.70;99.90;;;;;;5075227;28;20063;-47
2022/02/08 00:47:01;;;;;;;24.77;5.97;;;6.70;99.90;;;;;;5069740;28;20040;-48
2022/02/08 00:49:32;;;;;;;23.30;6.35;;;6.70;99.90;;;;;;5070345;28;20278;-50
2022/02/08 00:52:06;;;;;;;27.20;6.47;;;6.70;99.90;;;;;;5073815;28;20044;-50
2022/02/08 00:54:31;;;;;;;27.15;6.25;;;6.70;99.90;;;;;;5081217;28;20040;-48
2022/02/08 00:56:57;;;;;;;30.70;6.82;;;6.70;99.90;;;;;;5088826;28;20048;-51
2022/02/08 00:59:22;;;;;;;30.35;7.15;;;6.80;99.90;;;;;;5079189;28;20028;-52
2022/02/08 01:01:48;;;;;;;30.02;7.55;;;6.70;99.90;;;;;;5073995;28;20037;-52
2022/02/08 01:04:14;;;;;;;30.48;7.75;;;6.70;99.90;;;;;;5084469;28;20028;-50
2022/02/08 01:06:42;;;;;;;27.92;7.28;;;6.70;99.90;;;;;;5091190;28;20157;-51
2022/02/08 01:09:20;;;;;;;35.85;8.27;;;6.70;99.90;;;;;;5091328;28;20107;-53
2022/02/08 01:11:51;;;;;;;27.48;7.05;;;6.80;99.90;;;;;;5091070;28;20506;-50
2022/02/08 01:14:17;;;;;;;34.95;9.25;;;6.80;99.90;;;;;;5076690;28;20040;-52
2022/02/08 01:16:43;;;;;;;33.45;9.68;;;6.80;99.90;;;;;;5075615;28;20032;-53
2022/02/08 01:19:09;;;;;;;35.47;9.88;;;6.80;99.90;;;;;;5094814;28;20047;-53
2022/02/08 01:21:34;;;;;;;33.58;8.68;;;6.90;99.90;;;;;;5095031;28;20408;-53
2022/02/08 01:24:01;;;;;;;26.95;10.30;;;6.90;99.90;;;;;;5082602;28;20119;-53
2022/02/08 01:26:28;;;;;;;33.50;9.90;;;6.90;99.90;;;;;;5073977;28;20040;-54
2022/02/08 01:29:37;;;;;;;31.08;10.18;;;6.90;99.90;;;;;;5076039;28;20070;-50
2022/02/08 01:31:47;;;;;;;30.43;10.27;;;6.90;99.90;;;;;;5071981;28;20056;-54
2022/02/08 01:34:34;;;;;;;28.95;10.18;;;7.00;99.90;;;;;;5087396;28;20067;-52
2022/02/08 01:37:09;;;;;;;32.63;10.70;;;7.00;99.90;;;;;;5092489;28;20048;-52
2022/02/08 01:40:00;;;;;;;28.02;9.40;;;7.10;99.90;;;;;;5079978;28;20545;-53
2022/02/08 01:42:35;;;;;;;34.75;11.25;;;7.10;99.90;;;;;;5088730;28;20083;-53
2022/02/08 01:45:23;;;;;;;31.40;10.98;;;7.10;99.90;;;;;;5074273;28;20051;-52
2022/02/08 01:50:35;;;;;;;35.42;12.45;;;7.20;99.90;;;;;;5073869;28;20051;-53
2022/02/08 01:53:02;;;;;;;33.38;12.10;;;7.20;99.90;;;;;;5074617;28;20058;-53
2022/02/08 01:55:28;;;;;;;28.50;11.18;;;7.20;99.90;;;;;;5090522;28;20043;-50
2022/02/08 01:57:53;;;;;;;30.33;10.52;;;7.20;99.90;;;;;;5090191;28;20041;-53
2022/02/08 02:00:20;;;;;;;33.80;11.43;;;7.20;99.90;;;;;;5079152;28;20028;-53
2022/02/08 02:02:46;;;;;;;30.95;11.50;;;7.30;99.90;;;;;;5042674;22;20049;-54
2022/02/08 02:05:12;;;;;;;34.47;12.57;;;7.30;99.90;;;;;;5018183;28;20539;-55
2022/02/08 02:07:46;;;;;;;30.25;11.75;;;7.30;99.90;;;;;;5013693;28;20120;-55
2022/02/08 02:10:12;;;;;;;37.63;12.13;;;7.30;99.90;;;;;;5006479;28;20041;-55
2022/02/08 02:13:01;;;;;;;24.92;11.73;;;7.30;99.90;;;;;;4994453;28;20069;-55
2022/02/08 02:15:28;;;;;;;40.67;12.38;;;7.40;99.90;;;;;;5008716;28;20100;-55
2022/02/08 02:17:54;;;;;;;32.53;12.07;;;7.40;99.90;;;;;;5012709;28;20042;-53
2022/02/08 02:20:20;;;;;;;29.10;11.80;;;7.40;99.90;;;;;;5004829;28;20554;-55
2022/02/08 02:22:46;;;;;;;30.85;12.15;;;7.40;99.90;;;;;;5004333;28;20052;-55
2022/02/08 02:25:23;;;;;;;36.67;13.00;;;7.50;99.90;;;;;;4994254;28;20042;-53
2022/02/08 02:27:53;;;;;;;36.55;13.25;;;7.50;99.90;;;;;;5001632;28;20046;-55
2022/02/08 02:30:18;;;;;;;41.17;13.10;;;7.50;99.90;;;;;;5005304;28;20249;-55
2022/02/08 02:32:44;;;;;;;37.60;14.13;;;7.50;99.90;;;;;;5012875;28;20375;-54
2022/02/08 02:35:10;;;;;;;32.33;13.90;;;7.50;99.90;;;;;;5012125;28;20169;-53
2022/02/08 02:37:36;;;;;;;34.45;13.93;;;7.50;99.90;;;;;;5005100;28;20113;-55
2022/02/08 02:40:01;;;;;;;41.47;13.40;;;7.60;99.90;;;;;;5013457;28;20125;-56
2022/02/08 02:42:29;;;;;;;37.88;14.52;;;7.60;99.90;;;;;;5012469;28;20049;-56
2022/02/08 02:44:55;;;;;;;42.22;15.25;;;7.60;99.90;;;;;;5013179;28;20041;-56
2022/02/08 02:47:22;;;;;;;33.88;14.57;;;7.60;99.90;;;;;;5012229;28;20096;-55
2022/02/08 02:49:48;;;;;;;42.88;15.20;;;7.60;99.90;;;;;;4995733;28;20176;-55
2022/02/08 02:52:13;;;;;;;38.55;14.23;;;7.60;99.90;;;;;;5013263;28;20125;-56
2022/02/08 02:54:39;;;;;;;36.38;14.65;;;7.60;99.90;;;;;;4995052;28;20124;-56
2022/02/08 02:57:05;;;;;;;35.13;13.70;;;7.70;99.90;;;;;;5012605;28;20034;-55
2022/02/08 02:59:33;;;;;;;37.08;13.05;;;7.80;99.90;;;;;;4992606;28;20140;-56
2022/02/08 03:18:27;;;;;;;37.13;11.07;;;8.00;99.90;;;;;;5012414;28;20172;-55
2022/02/08 03:20:44;;;;;;;37.42;10.75;;;8.00;99.90;;;;;;5008709;28;20121;-56
2022/02/08 03:23:09;;;;;;;35.45;11.55;;;8.00;99.90;;;;;;5007395;28;20124;-56
2022/02/08 03:25:35;;;;;;;24.70;10.50;;;8.10;99.90;;;;;;5012713;28;20135;-56
2022/02/08 03:28:00;;;;;;;36.22;10.65;;;8.10;99.90;;;;;;5011683;28;20042;-56
2022/02/08 03:30:26;;;;;;;32.28;10.90;;;8.10;99.90;;;;;;5010821;28;20061;-55
2022/02/08 03:32:54;;;;;;;34.67;10.07;;;8.10;99.90;;;;;;5008664;28;20120;-54
2022/02/08 03:35:20;;;;;;;35.22;10.82;;;8.10;99.90;;;;;;4992742;28;20042;-55
2022/02/08 03:37:54;;;;;;;25.15;9.70;;;8.10;99.90;;;;;;5008813;28;20045;-56
2022/02/08 03:40:36;;;;;;;36.22;11.00;;;8.20;99.90;;;;;;5011792;28;20052;-56
2022/02/08 03:43:16;;;;;;;29.98;10.90;;;8.20;99.90;;;;;;5012036;28;20034;-56
2022/02/08 03:45:46;;;;;;;32.13;10.00;;;8.20;99.90;;;;;;5011984;28;20041;-53
2022/02/08 03:48:14;;;;;;;35.22;10.25;;;8.30;99.90;;;;;;5011904;28;20041;-55
2022/02/08 03:50:40;;;;;;;28.25;9.20;;;8.20;99.90;;;;;;5012075;28;20042;-56
2022/02/08 03:53:05;;;;;;;32.75;9.82;;;8.20;99.90;;;;;;5011922;28;20473;-55
2022/02/08 03:55:31;;;;;;;31.05;11.00;;;8.30;99.90;;;;;;5010037;28;20048;-55
2022/02/08 03:57:56;;;;;;;30.20;9.45;;;8.30;99.90;;;;;;5002041;28;20405;-55
2022/02/08 04:00:24;;;;;;;35.22;9.38;;;8.30;99.90;;;;;;5012056;28;20053;-56
2022/02/08 04:02:54;;;;;;;31.33;10.02;;;8.40;99.90;;;;;;5010575;28;20041;-54
2022/02/08 04:05:34;;;;;;;31.45;9.45;;;8.30;99.90;;;;;;5012224;28;20121;-56
2022/02/08 04:08:04;;;;;;;27.73;9.25;;;8.40;99.90;;;;;;4994577;28;20125;-54
2022/02/08 04:10:31;;;;;;;35.00;9.55;;;8.40;99.90;;;;;;5011946;28;20081;-56
2022/02/08 04:13:14;;;;;;;28.63;9.77;;;8.40;99.90;;;;;;5011289;28;20046;-54
2022/02/08 04:18:22;;;;;;;23.90;9.38;;;8.40;99.90;;;;;;5011139;28;20445;-53
2022/02/08 04:40:16;;;;;;;25.88;9.68;;;8.50;99.90;;;;;;5011775;28;20132;-53
2022/02/08 04:43:00;;;;;;;28.92;9.55;;;8.50;99.90;;;;;;5010986;28;20045;-54
2022/02/08 04:45:51;;;;;;;21.58;8.48;;;8.60;99.90;;;;;;5011783;28;20037;-54
2022/02/08 04:50:46;;;;;;;28.23;8.73;;;8.60;99.90;;;;;;5010896;28;20506;-55
2022/02/08 04:53:20;;;;;;;31.73;9.65;;;8.60;99.90;;;;;;5014412;28;20038;-56
2022/02/08 04:55:58;;;;;;;30.83;8.73;;;8.60;99.90;;;;;;5015201;28;20044;-52
2022/02/08 04:58:31;;;;;;;31.48;9.90;;;8.60;99.90;;;;;;5014889;28;20041;-56
2022/02/08 05:01:12;;;;;;;18.92;7.90;;;8.60;99.90;;;;;;5014645;28;20050;-56
2022/02/08 05:29:16;;;;;;;24.58;7.38;;;8.60;99.90;;;;;;5001603;28;20058;-56
2022/02/08 05:42:22;;;;;;;22.08;6.18;;;8.70;99.90;;;;;;4994742;28;20054;-56
2022/02/08 05:44:55;;;;;;;24.97;6.40;;;8.60;99.90;;;;;;4994765;28;20069;-56
2022/02/08 05:47:21;;;;;;;28.75;6.25;;;8.70;99.90;;;;;;4988733;28;20324;-56
2022/02/08 05:50:07;;;;;;;25.52;6.25;;;8.60;99.90;;;;;;5014416;28;20544;-57
2022/02/08 05:52:49;;;;;;;23.33;6.05;;;8.70;99.90;;;;;;5014306;28;20046;-57
2022/02/08 05:55:15;;;;;;;23.33;5.80;;;8.70;99.90;;;;;;5013789;28;20044;-57
2022/02/08 05:57:41;;;;;;;19.83;5.65;;;8.70;99.90;;;;;;5012979;28;20042;-55
2022/02/08 06:00:08;;;;;;;19.92;5.95;;;8.70;99.90;;;;;;5009916;28;20162;-56
2022/02/08 06:02:33;;;;;;;22.88;5.82;;;8.70;99.90;;;;;;5008947;28;20048;-57
2022/02/08 06:04:59;;;;;;;21.25;5.72;;;8.70;99.90;;;;;;5025109;28;20033;-56
2022/02/08 06:07:24;;;;;;;21.90;5.95;;;8.70;99.90;;;;;;5020900;28;20446;-56
2022/02/08 06:09:54;;;;;;;19.65;5.95;;;8.70;99.90;;;;;;5013082;28;20038;-56
2022/02/08 06:12:23;;;;;;;19.95;5.88;;;8.70;99.90;;;;;;4994520;28;20050;-57
2022/02/08 06:14:57;;;;;;;20.95;5.88;;;8.70;99.90;;;;;;4998307;28;20096;-57
2022/02/08 06:17:24;;;;;;;16.50;4.57;;;8.80;99.90;;;;;;5007295;28;20038;-56
2022/02/08 06:19:50;;;;;;;16.70;4.63;;;8.70;99.90;;;;;;5011487;28;20049;-56
2022/02/08 06:22:16;;;;;;;21.40;5.53;;;8.70;99.90;;;;;;4987754;28;20040;-56
2022/02/08 06:24:42;;;;;;;20.70;4.25;;;8.70;99.90;;;;;;5013143;28;20042;-56
2022/02/08 06:27:09;;;;;;;19.52;5.05;;;8.70;99.90;;;;;;5013416;28;20049;-56
2022/02/08 06:29:34;;;;;;;19.30;4.45;;;8.70;99.90;;;;;;5013636;28;20046;-56
2022/02/08 06:32:00;;;;;;;18.85;4.65;;;8.70;99.90;;;;;;5013122;28;20035;-56
2022/02/08 06:34:30;;;;;;;19.30;4.65;;;8.70;99.90;;;;;;5010165;28;20124;-56
2022/02/08 06:37:01;;;;;;;21.30;3.78;;;8.70;99.90;;;;;;5011553;28;20100;-56
2022/02/08 06:39:33;;;;;;;17.67;4.50;;;8.70;99.90;;;;;;5007619;28;20042;-56
2022/02/08 06:41:58;;;;;;;13.98;3.80;;;8.70;99.90;;;;;;5010719;28;20461;-55
2022/02/08 06:44:24;;;;;;;16.17;3.85;;;8.70;99.90;;;;;;5006749;28;20033;-55
2022/02/08 06:46:49;;;;;;;22.33;4.05;;;8.80;99.90;;;;;;5009173;28;20046;-56
2022/02/08 06:49:15;;;;;;;17.98;3.83;;;8.80;99.90;;;;;;5009686;28;20060;-56
2022/02/08 06:51:41;;;;;;;17.05;3.55;;;8.80;99.90;;;;;;5011081;28;20061;-56
2022/02/08 06:54:06;;;;;;;16.73;4.00;;;8.80;99.90;;;;;;5009392;28;20552;-57
2022/02/08 06:56:32;;;;;;;12.88;3.53;;;8.80;99.90;;;;;;5011432;28;20034;-56
2022/02/08 06:59:05;;;;;;;11.63;3.40;;;8.80;99.90;;;;;;5010861;28;20033;-55
2022/02/08 07:01:33;;;;;;;17.25;3.30;;;8.80;99.90;;;;;;5010767;28;20490;-56
2022/02/08 07:04:00;;;;;;;14.32;3.38;;;8.80;99.90;;;;;;5010044;28;20556;-56
2022/02/08 07:06:26;;;;;;;13.73;3.03;;;8.90;99.90;;;;;;5011624;28;20121;-53
2022/02/08 07:08:51;;;;;;;17.15;3.00;;;8.90;99.90;;;;;;5012807;28;20134;-57
2022/02/08 07:11:17;;;;;;;16.48;3.00;;;8.90;99.90;;;;;;5009442;28;20118;-56
2022/02/08 07:13:44;;;;;;;17.02;3.55;;;8.90;99.90;;;;;;5015079;28;20116;-56
2022/02/08 07:16:11;;;;;;;16.35;3.33;;;8.90;99.90;;;;;;4999402;28;20042;-56
2022/02/08 07:18:37;;;;;;;14.32;3.13;;;9.00;99.90;;;;;;4975402;28;20054;-56
2022/02/08 07:21:03;;;;;;;17.02;2.63;;;8.90;99.90;;;;;;4993124;28;20038;-56
2022/02/08 07:23:29;;;;;;;19.98;3.55;;;8.90;99.90;;;;;;4993080;28;20074;-56
2022/02/08 07:25:55;;;;;;;20.17;3.20;;;9.00;99.90;;;;;;5010712;28;20080;-56
2022/02/08 07:28:21;;;;;;;14.10;2.67;;;9.00;99.90;;;;;;5011634;28;20070;-56
2022/02/08 07:30:47;;;;;;;14.48;2.85;;;9.00;99.90;;;;;;5011587;28;20046;-56
2022/02/08 07:33:12;;;;;;;16.45;3.13;;;9.00;99.90;;;;;;5011827;28;20695;-56
2022/02/08 07:35:49;;;;;;;13.70;2.90;;;9.00;99.90;;;;;;5012225;28;20038;-56
2022/02/08 07:38:24;;;;;;;11.45;2.78;;;9.10;99.90;;;;;;5012279;28;20034;-56
2022/02/08 07:43:16;;;;;;;16.05;3.38;;;9.10;99.90;;;;;;5013105;28;20558;-55
2022/02/08 07:45:42;;;;;;;14.02;2.63;;;9.10;99.90;;;;;;5009523;28;20042;-56
2022/02/08 07:48:08;;;;;;;13.93;2.65;;;9.10;99.90;;;;;;5010799;28;20508;-56
2022/02/08 07:50:39;;;;;;;12.60;2.90;;;9.10;99.90;;;;;;5011159;28;20447;-56
2022/02/08 07:53:09;;;;;;;17.45;3.15;;;9.20;99.90;;;;;;5009922;28;20176;-56
2022/02/08 07:55:34;;;;;;;11.63;2.53;;;9.20;99.90;;;;;;5010614;28;20046;-57
2022/02/08 07:58:00;;;;;;;12.73;3.00;;;9.30;99.90;;;;;;5009864;28;20045;-56
2022/02/08 08:00:26;;;;;;;17.33;2.92;;;9.30;99.90;;;;;;5010293;28;20038;-56
2022/02/08 08:02:53;;;;;;;19.08;3.00;;;9.30;99.90;;;;;;5091040;22;20127;-49
2022/02/08 08:05:19;;;;;;;15.73;3.17;;;9.30;99.90;;;;;;5070057;28;20029;-51
2022/02/08 08:07:48;;;;;;;14.38;2.97;;;9.30;99.90;;;;;;5069981;28;20042;-51
2022/02/08 08:10:22;;;;;;;13.88;2.40;;;9.30;99.90;;;;;;5069995;28;20044;-49
2022/02/08 08:12:51;;;;;;;15.02;2.78;;;9.40;99.90;;;;;;5057206;28;20041;-52
2022/02/08 08:18:13;;;;;;;21.38;2.90;;;9.30;99.90;;;;;;5040982;28;20397;-52
2022/02/08 08:20:39;;;;;;;20.75;3.70;;;9.40;99.90;;;;;;5030556;28;20041;-52
2022/02/08 08:23:05;;;;;;;16.85;2.50;;;9.40;99.90;;;;;;5037043;28;20030;-50
2022/02/08 08:25:30;;;;;;;18.33;3.42;;;9.40;99.90;;;;;;5032420;28;20378;-53
2022/02/08 08:27:56;;;;;;;15.93;2.67;;;9.40;99.90;;;;;;5037653;28;20505;-53
2022/02/08 08:30:22;;;;;;;20.23;3.58;;;9.50;99.90;;;;;;5045526;28;20382;-53
2022/02/08 08:32:47;;;;;;;18.23;3.30;;;9.40;99.90;;;;;;5054896;28;20080;-49
2022/02/08 08:35:19;;;;;;;15.45;2.88;;;9.40;99.90;;;;;;5049210;28;20512;-52
2022/02/08 08:37:46;;;;;;;13.65;2.85;;;9.50;99.90;;;;;;5050602;28;20068;-52
2022/02/08 08:40:35;;;;;;;16.13;3.00;;;9.50;99.90;;;;;;5049756;28;20045;-52
2022/02/08 08:51:16;;;;;;;16.88;3.28;;;9.60;99.90;;;;;;5062651;28;20048;-49
2022/02/08 08:53:43;;;;;;;12.60;2.72;;;9.60;99.90;;;;;;5062806;28;20033;-51
2022/02/08 08:56:09;;;;;;;11.45;3.00;;;9.70;99.90;;;;;;5074051;28;20561;-52
2022/02/08 08:58:36;;;;;;;18.63;2.85;;;9.60;99.90;;;;;;5050084;28;20080;-52
2022/02/08 09:01:03;;;;;;;10.23;2.60;;;9.70;99.90;;;;;;5046232;28;20113;-51
2022/02/08 09:03:29;;;;;;;17.15;2.92;;;9.70;99.90;;;;;;5031609;28;20037;-52
2022/02/08 09:05:55;;;;;;;12.70;2.55;;;9.70;99.90;;;;;;5032188;28;20044;-51
2022/02/08 09:08:22;;;;;;;10.82;2.65;;;9.70;99.90;;;;;;5029403;28;20484;-50
2022/02/08 09:10:56;;;;;;;15.43;2.78;;;9.80;99.90;;;;;;5053396;28;20076;-53
2022/02/08 09:29:22;;;;;;;12.70;2.30;;;10.00;99.90;;;;;;5054143;28;20068;-52
2022/02/08 09:31:48;;;;;;;12.88;2.17;;;10.10;99.90;;;;;;5053874;28;20045;-49
2022/02/08 09:34:14;;;;;;;12.35;2.40;;;10.10;99.90;;;;;;5066210;28;20090;-52
2022/02/08 09:36:40;;;;;;;10.07;2.20;;;10.10;99.90;;;;;;5073646;28;20040;-52
2022/02/08 09:39:05;;;;;;;13.63;2.65;;;10.10;99.90;;;;;;5073232;28;20039;-51
2022/02/08 09:41:34;;;;;;;11.88;2.45;;;10.10;99.90;;;;;;5073838;28;20048;-53
2022/02/08 09:44:03;;;;;;;13.50;3.22;;;10.20;99.90;;;;;;5072441;28;20041;-52
2022/02/08 09:46:29;;;;;;;7.30;2.67;;;10.20;99.90;;;;;;5069898;28;20032;-51
2022/02/08 09:48:57;;;;;;;13.93;2.85;;;10.10;99.90;;;;;;5053985;28;20562;-52
2022/02/08 09:51:24;;;;;;;13.20;2.95;;;10.10;99.90;;;;;;5058693;28;20403;-52
2022/02/08 09:53:56;;;;;;;13.15;2.83;;;10.10;99.90;;;;;;5072452;28;20045;-51
2022/02/08 09:56:23;;;;;;;11.30;2.78;;;10.00;99.90;;;;;;5073543;28;20040;-52
2022/02/08 09:58:50;;;;;;;12.82;1.92;;;10.10;99.90;;;;;;5073377;28;20045;-53
2022/02/08 10:01:21;;;;;;;13.35;2.33;;;10.10;99.90;;;;;;5066861;28;20036;-51
2022/02/08 10:03:56;;;;;;;8.52;1.92;;;10.10;99.90;;;;;;5071072;28;20051;-51
2022/02/08 10:06:26;;;;;;;13.23;2.45;;;10.10;99.90;;;;;;5059192;28;20033;-51
2022/02/08 10:09:09;;;;;;;11.68;2.60;;;10.20;99.90;;;;;;5062772;28;20044;-52
2022/02/08 10:11:45;;;;;;;;;;;10.20;99.90;;;;;;5068437;28;20039;-53
2022/02/08 10:22:42;;;;;;;11.68;2.80;;;10.30;99.90;;;;;;5037176;28;20163;-50
2022/02/08 10:25:20;;;;;;;11.95;2.25;;;10.30;99.90;;;;;;5067916;28;20476;-53
2022/02/08 10:28:01;;;;;;;9.38;2.00;;;10.40;99.90;;;;;;5067509;28;20127;-51
2022/02/08 10:38:21;;;;;;;7.10;2.00;;;10.50;99.90;;;;;;5060461;28;20132;-52
2022/02/08 10:40:47;;;;;;;9.68;1.80;;;10.60;99.90;;;;;;5072624;28;20115;-52
2022/02/08 10:43:18;;;;;;;8.82;2.10;;;10.60;99.90;;;;;;5055047;28;20036;-55
2022/02/08 10:45:44;;;;;;;9.40;2.45;;;10.70;99.90;;;;;;5052952;28;20032;-53
2022/02/08 10:48:14;;;;;;;11.63;1.92;;;10.70;99.90;;;;;;5057451;28;20072;-50
2022/02/08 10:50:46;;;;;;;13.15;2.15;;;10.70;99.90;;;;;;5064508;28;20155;-52
2022/02/08 10:53:13;;;;;;;13.40;2.60;;;10.70;99.90;;;;;;5058926;28;20029;-55
2022/02/08 10:55:48;;;;;;;9.30;1.77;;;10.70;99.90;;;;;;5052529;28;20435;-52
2022/02/08 11:00:53;;;;;;;11.52;2.22;;;10.80;99.90;;;;;;5035119;28;20042;-50
2022/02/08 11:03:35;;;;;;;7.20;1.45;;;10.80;99.90;;;;;;5031932;28;20030;-54
2022/02/08 11:11:56;;;;;;;10.43;2.38;;;11.00;99.90;;;;;;5034420;28;20041;-52
2022/02/08 11:17:51;;;;;;;7.55;2.25;;;11.00;99.90;;;;;;5040280;28;20497;-50
2022/02/08 11:20:22;;;;;;;14.02;2.25;;;11.00;99.90;;;;;;5037121;28;20041;-53
2022/02/08 11:23:02;;;;;;;7.97;1.80;;;11.00;99.90;;;;;;5035300;28;20041;-53
2022/02/08 11:25:37;;;;;;;15.32;2.28;;;10.90;99.90;;;;;;5042267;28;20037;-54
2022/02/08 11:28:20;;;;;;;10.55;2.20;;;10.90;99.90;;;;;;5040127;28;20107;-53
2022/02/08 11:31:01;;;;;;;12.38;2.25;;;10.90;99.90;;;;;;5037455;28;20045;-53
2022/02/08 11:41:12;;;;;;;11.20;2.28;;;10.90;99.90;;;;;;5043184;28;20055;-51
2022/02/08 11:42:55;;;;;;;14.95;2.33;;;11.00;99.90;;;;;;5024824;28;20072;-51
2022/02/08 11:58:36;;;;;;;13.25;2.45;;;10.90;99.90;;;;;;5042563;28;20049;-53
2022/02/08 12:01:13;;;;;;;13.15;2.22;;;10.90;99.90;;;;;;5037498;28;20100;-52
2022/02/08 12:04:35;;;;;;;13.15;2.22;;;10.90;99.90;;;;;;5036071;28;20492;-54
2022/02/08 12:07:13;;;;;;;12.02;2.75;;;10.80;99.90;;;;;;5031500;28;20044;-54
2022/02/08 12:10:34;;;;;;;13.23;2.28;;;10.80;99.90;;;;;;5032799;28;20536;-52
2022/02/08 12:56:15;;;;;;;16.43;2.27;;;10.70;99.90;;;;;;5070934;28;20403;-50
2022/02/08 13:18:40;;;;;;;13.82;2.60;;;10.90;99.90;;;;;;5053023;28;20072;-56
2022/02/08 14:07:07;;;;;;;13.25;2.60;;;10.80;99.90;;;;;;4994201;28;20124;-52
2022/02/08 14:09:49;;;;;;;14.55;1.98;;;10.80;99.90;;;;;;5012954;28;20034;-52
2022/02/08 14:13:04;;;;;;;10.45;2.22;;;10.80;99.90;;;;;;5012899;28;20086;-52
2022/02/08 14:15:45;;;;;;;13.13;2.65;;;10.80;99.90;;;;;;5013036;28;20050;-52
2022/02/08 14:20:56;;;;;;;10.15;2.40;;;10.80;99.90;;;;;;5012162;28;20046;-54
2022/02/08 14:23:39;;;;;;;13.52;2.60;;;10.80;99.90;;;;;;5007551;28;20042;-53
2022/02/08 14:31:50;;;;;;;13.32;2.42;;;10.70;99.90;;;;;;5010752;28;20053;-55
2022/02/08 15:09:25;;;;;;;13.20;2.13;;;10.60;99.90;;;;;;5010871;28;20038;-55
2022/02/08 15:12:13;;;;;;;11.77;2.45;;;10.60;99.90;;;;;;5010401;28;20065;-54
2022/02/08 15:14:50;;;;;;;12.45;2.08;;;10.60;99.90;;;;;;5013154;28;20095;-53
2022/02/08 15:17:16;;;;;;;12.15;2.25;;;10.60;99.90;;;;;;5009136;28;20034;-52
2022/02/08 15:19:44;;;;;;;11.02;2.45;;;10.50;99.90;;;;;;5010304;28;20102;-52
2022/02/08 15:22:10;;;;;;;15.82;2.85;;;10.60;99.90;;;;;;5007963;28;20064;-54
2022/02/08 15:24:37;;;;;;;17.30;3.30;;;10.60;99.90;;;;;;5009974;28;20493;-52
2022/02/08 15:27:03;;;;;;;8.10;1.85;;;10.50;99.90;;;;;;5009691;28;20128;-55
2022/02/08 15:29:31;;;;;;;13.85;2.58;;;10.60;99.90;;;;;;5008538;28;20367;-52
2022/02/08 15:31:58;;;;;;;12.05;2.35;;;10.50;99.90;;;;;;5009951;28;20075;-52
2022/02/08 15:34:23;;;;;;;13.57;2.50;;;10.50;99.90;;;;;;5007579;28;20053;-53
2022/02/08 15:36:49;;;;;;;18.10;2.55;;;10.50;99.90;;;;;;5009453;28;20128;-52
2022/02/08 15:39:15;;;;;;;7.63;2.03;;;10.50;99.90;;;;;;5007521;28;20100;-53
2022/02/08 15:41:41;;;;;;;9.40;2.17;;;10.60;99.90;;;;;;5008934;28;20464;-51
2022/02/08 15:44:14;;;;;;;10.60;2.30;;;10.50;99.90;;;;;;5008083;28;20041;-52
2022/02/08 15:46:40;;;;;;;13.00;2.42;;;10.60;99.90;;;;;;5008052;28;20105;-55
2022/02/08 15:49:06;;;;;;;13.93;2.47;;;10.50;99.90;;;;;;5010030;28;20037;-52
2022/02/08 15:51:41;;;;;;;11.68;2.33;;;10.60;99.90;;;;;;5013037;28;20092;-56
2022/02/08 15:54:14;;;;;;;14.30;2.10;;;10.60;99.90;;;;;;5010439;28;20042;-55
2022/02/08 15:56:57;;;;;;;12.40;2.45;;;10.50;99.90;;;;;;5010186;28;20041;-55
2022/02/08 16:07:29;;;;;;;11.85;2.22;;;10.40;99.90;;;;;;5009615;28;20552;-53
2022/02/08 16:10:05;;;;;;;11.07;2.03;;;10.50;99.90;;;;;;5011395;28;20044;-54
2022/02/08 16:12:45;;;;;;;14.95;2.33;;;10.50;99.90;;;;;;5011698;28;20042;-54
2022/02/08 16:18:04;;;;;;;13.77;2.38;;;10.40;99.90;;;;;;5010558;28;20465;-54
2022/02/08 16:31:33;;;;;;;14.35;2.50;;;10.40;99.90;;;;;;4992997;28;20081;-50
2022/02/08 16:48:57;;;;;;;14.27;2.38;;;10.40;99.90;;;;;;5016867;28;20072;-54
2022/02/08 16:51:32;;;;;;;13.35;2.40;;;10.40;99.90;;;;;;5012584;28;20391;-54
2022/02/08 16:53:34;;;;;;;8.65;2.17;;;10.40;99.90;;;;;;5014283;28;20053;-54
2022/02/08 17:02:08;;;;;;;14.23;2.42;;;10.40;99.90;;;;;;5012516;28;20500;-50
2022/02/08 17:04:35;;;;;;;9.32;1.98;;;10.40;99.90;;;;;;5011690;28;20049;-52
2022/02/08 17:07:01;;;;;;;13.65;2.50;;;10.40;99.90;;;;;;5002859;28;20042;-50
2022/02/08 17:09:43;;;;;;;11.40;2.20;;;10.40;99.90;;;;;;5003740;28;20038;-51
2022/02/08 17:12:19;;;;;;;8.50;2.08;;;10.40;99.90;;;;;;5005863;28;20033;-51
2022/02/08 17:14:54;;;;;;;13.50;2.80;;;10.40;99.90;;;;;;5014146;28;20468;-52
2022/02/08 17:47:20;;;;;;;6.97;1.85;;;10.30;99.90;;;;;;5003998;28;20089;-52
2022/02/08 17:49:45;;;;;;;12.20;2.45;;;10.30;99.90;;;;;;5009749;28;20121;-54
2022/02/08 17:52:11;;;;;;;9.02;1.80;;;10.40;99.90;;;;;;5011676;28;20534;-50
2022/02/08 17:54:37;;;;;;;11.43;2.22;;;10.40;99.90;;;;;;5008624;28;20492;-52
2022/02/08 17:57:04;;;;;;;9.90;2.40;;;10.40;99.90;;;;;;5011163;28;20084;-51
2022/02/08 17:59:30;;;;;;;11.50;2.38;;;10.40;99.90;;;;;;5008329;28;20044;-49
2022/02/08 18:01:55;;;;;;;8.77;2.15;;;10.40;99.90;;;;;;5009431;28;20129;-52
2022/02/08 18:04:21;;;;;;;11.65;2.42;;;10.40;99.90;;;;;;5011632;28;20115;-51
2022/02/08 18:06:47;;;;;;;12.85;2.38;;;10.30;99.90;;;;;;5013898;28;20038;-51
2022/02/08 18:09:14;;;;;;;11.32;2.03;;;10.30;99.90;;;;;;5013084;28;20084;-53
2022/02/08 18:11:42;;;;;;;12.23;2.55;;;10.30;99.90;;;;;;5013409;28;20045;-51
2022/02/08 18:14:11;;;;;;;10.77;2.55;;;10.20;99.90;;;;;;5011862;28;20075;-53
2022/02/08 18:16:37;;;;;;;10.77;2.35;;;10.20;99.90;;;;;;4993967;28;20108;-51
2022/02/08 18:19:11;;;;;;;13.23;2.38;;;10.20;99.90;;;;;;5006724;28;20038;-52
2022/02/08 18:21:44;;;;;;;11.88;2.80;;;10.20;99.90;;;;;;5001629;28;20038;-53
2022/02/08 19:07:37;;;;;;;13.77;3.05;;;10.00;99.90;;;;;;5012684;28;20038;-51
2022/02/08 19:12:57;;;;;;;9.70;3.38;;;10.00;99.90;;;;;;4996552;28;20511;-52
2022/02/08 19:20:38;;;;;;;13.68;3.03;;;9.90;99.90;;;;;;4992987;28;20097;-51
2022/02/08 19:23:04;;;;;;;9.43;2.90;;;9.90;99.90;;;;;;5006235;28;20034;-52
2022/02/08 19:25:29;;;;;;;11.20;2.80;;;9.90;99.90;;;;;;5012118;28;20041;-49
2022/02/08 19:27:57;;;;;;;12.25;3.10;;;9.80;99.90;;;;;;5012403;28;20502;-51
2022/02/08 19:30:22;;;;;;;13.00;3.08;;;9.80;99.90;;;;;;5011432;28;20038;-52
2022/02/08 19:32:48;;;;;;;8.25;2.70;;;9.80;99.90;;;;;;5012467;28;20042;-52
2022/02/08 19:35:15;;;;;;;14.43;4.15;;;9.70;99.90;;;;;;5012300;28;20048;-51
2022/02/08 19:37:41;;;;;;;10.75;3.80;;;9.70;99.90;;;;;;5011943;28;20033;-49
2022/02/08 19:40:07;;;;;;;11.68;3.10;;;9.70;99.90;;;;;;5011850;28;20049;-52
2022/02/08 19:42:34;;;;;;;10.27;3.35;;;9.60;99.90;;;;;;5008973;28;20038;-53
2022/02/08 19:45:10;;;;;;;10.50;2.85;;;9.50;99.90;;;;;;5000236;28;20038;-50
2022/02/08 19:47:35;;;;;;;7.88;3.70;;;9.50;99.90;;;;;;5003733;28;20109;-53
2022/02/08 19:50:03;;;;;;;10.43;3.67;;;9.50;99.90;;;;;;5011920;28;20234;-51
2022/02/08 19:52:30;;;;;;;12.02;4.18;;;9.40;99.90;;;;;;5003620;28;20046;-51
2022/02/08 19:57:40;;;;;;;9.98;4.28;;;9.30;99.90;;;;;;5009298;28;20068;-51
2022/02/08 20:00:10;;;;;;;11.65;4.78;;;9.30;99.90;;;;;;5003827;28;20482;-49
2022/02/08 20:02:42;;;;;;;12.60;5.35;;;9.30;99.90;;;;;;5003799;28;20034;-51
2022/02/08 20:05:08;;;;;;;12.23;5.50;;;9.30;99.90;;;;;;5043284;22;20144;-53
2022/02/08 20:07:34;;;;;;;10.80;5.07;;;9.30;99.90;;;;;;5011394;28;20454;-50
2022/02/08 20:10:00;;;;;;;10.00;4.60;;;9.20;99.90;;;;;;5011210;28;20042;-51
2022/02/08 20:12:26;;;;;;;14.32;5.55;;;9.20;99.90;;;;;;5011136;28;20092;-50